Time;durP1;ratioP1;P1;durP2;ratioP2;P2;SDS_P1;SDS_P2;PMS_P1;PMS_P2;Temp;Humidity;BMP_temperature;BMP_pressure;BME280_temperature;BME280_humidity;BME280_pressure;Samples;Min_cycle;Max_cycle;Signal;HPM_P1;HPM_P2
2022/05/16 00:00:53;;;;;;;3.88;1.25;;;;;;;;;;10312888;28;20873;-63
2022/05/16 00:05:50;;;;;;;4.20;0.95;;;;;;;;;;10247045;28;20127;-63
2022/05/16 00:10:47;;;;;;;6.00;1.38;;;;;;;;;;10283435;28;20171;-62
2022/05/16 00:15:43;;;;;;;5.45;1.25;;;;;;;;;;10266136;28;20592;-62
2022/05/16 00:20:40;;;;;;;6.70;1.40;;;;;;;;;;10270545;28;20095;-62
2022/05/16 00:25:36;;;;;;;5.47;1.10;;;;;;;;;;10279165;28;20467;-62
2022/05/16 00:30:32;;;;;;;3.90;1.20;;;;;;;;;;10312350;28;20060;-63
2022/05/16 00:35:28;;;;;;;4.90;1.38;;;;;;;;;;10288964;28;20076;-63
2022/05/16 00:40:25;;;;;;;8.13;1.85;;;;;;;;;;10295565;28;20083;-63
2022/05/16 00:45:21;;;;;;;7.15;1.50;;;;;;;;;;10257814;28;21100;-63
2022/05/16 00:50:18;;;;;;;5.55;2.28;;;;;;;;;;10260370;28;20049;-63
2022/05/16 00:55:18;;;;;;;4.13;1.30;;;;;;;;;;10270461;28;20052;-63
2022/05/16 01:00:20;;;;;;;7.28;1.75;;;;;;;;;;10270454;28;20554;-63
2022/05/16 01:10:16;;;;;;;6.97;1.75;;;;;;;;;;9945121;28;20129;-65
2022/05/16 01:15:14;;;;;;;7.07;1.40;;;;;;;;;;9954164;28;20114;-64
2022/05/16 01:20:11;;;;;;;6.03;1.52;;;;;;;;;;9921960;28;20053;-64
2022/05/16 01:25:10;;;;;;;5.75;1.42;;;;;;;;;;9930293;28;20079;-67
2022/05/16 01:30:06;;;;;;;5.43;1.95;;;;;;;;;;10147064;28;20043;-67
2022/05/16 01:35:03;;;;;;;7.90;2.10;;;;;;;;;;10085827;28;20557;-67
2022/05/16 01:39:59;;;;;;;5.00;1.45;;;;;;;;;;10120892;28;20063;-68
2022/05/16 01:44:55;;;;;;;6.63;1.92;;;;;;;;;;9980349;28;20064;-68
2022/05/16 01:49:51;;;;;;;6.47;1.52;;;;;;;;;;10008398;28;20155;-68
2022/05/16 01:54:48;;;;;;;6.43;1.80;;;;;;;;;;9994333;28;20137;-67
2022/05/16 01:59:44;;;;;;;5.45;1.65;;;;;;;;;;9992305;28;20142;-68
2022/05/16 02:04:40;;;;;;;5.22;1.70;;;;;;;;;;9995206;28;20139;-67
2022/05/16 02:09:36;;;;;;;6.97;1.83;;;;;;;;;;9987427;28;20106;-65
2022/05/16 02:14:33;;;;;;;5.93;1.48;;;;;;;;;;9994209;28;20139;-68
2022/05/16 02:19:29;;;;;;;7.20;1.95;;;;;;;;;;10153100;28;20467;-65
2022/05/16 02:24:42;;;;;;;5.13;1.60;;;;;;;;;;10017305;28;20131;-64
2022/05/16 02:29:38;;;;;;;6.35;1.60;;;;;;;;;;10013347;28;20151;-66
2022/05/16 02:34:35;;;;;;;6.43;1.80;;;;;;;;;;10012574;28;20089;-67
2022/05/16 02:39:31;;;;;;;5.80;2.15;;;;;;;;;;10151394;28;20078;-67
2022/05/16 02:44:28;;;;;;;8.85;1.88;;;;;;;;;;9962090;28;20139;-66
2022/05/16 02:49:25;;;;;;;6.90;1.83;;;;;;;;;;10018567;28;20112;-67
2022/05/16 02:54:22;;;;;;;9.88;2.08;;;;;;;;;;9992407;28;20070;-68
2022/05/16 02:59:18;;;;;;;8.10;2.00;;;;;;;;;;10152298;28;20089;-67
2022/05/16 03:04:14;;;;;;;8.85;1.98;;;;;;;;;;10070495;28;20132;-68
2022/05/16 03:09:11;;;;;;;6.10;1.83;;;;;;;;;;9954420;28;20047;-67
2022/05/16 03:14:07;;;;;;;7.95;1.85;;;;;;;;;;9980293;28;20048;-66
2022/05/16 03:19:04;;;;;;;6.00;1.88;;;;;;;;;;9982794;28;20590;-67
2022/05/16 03:24:00;;;;;;;7.85;2.05;;;;;;;;;;9973178;28;20879;-68
2022/05/16 03:28:57;;;;;;;5.88;2.05;;;;;;;;;;9989937;28;20069;-67
2022/05/16 03:33:53;;;;;;;6.05;1.77;;;;;;;;;;9959663;28;20044;-66
2022/05/16 03:44:07;;;;;;;5.25;1.77;;;;;;;;;;9966488;28;20052;-68
2022/05/16 03:49:05;;;;;;;7.15;2.25;;;;;;;;;;10063505;28;20041;-66
2022/05/16 03:54:01;;;;;;;7.43;1.90;;;;;;;;;;10041101;28;20042;-67
2022/05/16 03:58:58;;;;;;;8.98;2.47;;;;;;;;;;10029749;28;20133;-66
2022/05/16 04:03:55;;;;;;;8.32;2.10;;;;;;;;;;9998435;28;20081;-65
2022/05/16 04:08:52;;;;;;;9.40;2.40;;;;;;;;;;9976133;28;20040;-66
2022/05/16 04:13:48;;;;;;;6.20;2.20;;;;;;;;;;9988141;28;20074;-66
2022/05/16 04:18:46;;;;;;;5.80;1.95;;;;;;;;;;9974944;28;20103;-67
2022/05/16 04:23:42;;;;;;;7.70;1.95;;;;;;;;;;10012966;28;20052;-66
2022/05/16 04:28:39;;;;;;;9.23;2.35;;;;;;;;;;9976166;28;20062;-65
2022/05/16 04:33:35;;;;;;;5.22;2.33;;;;;;;;;;9992332;28;20076;-66
2022/05/16 04:38:31;;;;;;;6.85;2.38;;;;;;;;;;9969427;28;20048;-65
2022/05/16 04:43:28;;;;;;;7.80;2.08;;;;;;;;;;10036654;28;20045;-65
2022/05/16 04:48:24;;;;;;;7.70;2.22;;;;;;;;;;9960765;28;20119;-65
2022/05/16 04:53:20;;;;;;;6.68;1.95;;;;;;;;;;10000053;28;20048;-65
2022/05/16 04:58:17;;;;;;;6.68;2.67;;;;;;;;;;9976756;28;20058;-65
2022/05/16 05:03:13;;;;;;;5.55;1.90;;;;;;;;;;9954231;29;20049;-65
2022/05/16 05:08:10;;;;;;;9.38;2.90;;;;;;;;;;9993382;28;20104;-66
2022/05/16 05:18:21;;;;;;;8.30;2.10;;;;;;;;;;9972507;28;20064;-65
2022/05/16 05:23:18;;;;;;;10.00;2.13;;;;;;;;;;9980084;28;20710;-65
2022/05/16 05:28:14;;;;;;;9.73;2.20;;;;;;;;;;9999061;28;20074;-65
2022/05/16 05:33:11;;;;;;;7.07;2.00;;;;;;;;;;10025936;28;20482;-66
2022/05/16 05:38:09;;;;;;;6.95;1.98;;;;;;;;;;10145596;28;20050;-65
2022/05/16 05:43:06;;;;;;;7.40;2.03;;;;;;;;;;10009323;28;20582;-67
2022/05/16 05:48:03;;;;;;;8.20;1.88;;;;;;;;;;10000015;28;20507;-66
2022/05/16 05:53:00;;;;;;;7.57;2.28;;;;;;;;;;10013889;28;20052;-66
2022/05/16 05:57:57;;;;;;;9.30;2.80;;;;;;;;;;9998365;28;20532;-67
2022/05/16 06:02:53;;;;;;;6.72;2.08;;;;;;;;;;9979294;28;20402;-67
2022/05/16 06:07:50;;;;;;;9.05;2.22;;;;;;;;;;9960922;28;20091;-66
2022/05/16 06:12:46;;;;;;;6.00;1.90;;;;;;;;;;9953161;29;20143;-67
2022/05/16 06:17:43;;;;;;;6.05;2.13;;;;;;;;;;9970941;28;20143;-67
2022/05/16 06:22:40;;;;;;;10.25;2.80;;;;;;;;;;9974326;28;20084;-67
2022/05/16 06:27:36;;;;;;;6.25;1.90;;;;;;;;;;9967159;28;20080;-66
2022/05/16 06:32:32;;;;;;;10.30;2.13;;;;;;;;;;9968595;28;20064;-67
2022/05/16 06:37:28;;;;;;;8.05;1.80;;;;;;;;;;9981566;28;20040;-70
2022/05/16 06:42:25;;;;;;;7.78;2.00;;;;;;;;;;9970519;28;20131;-66
2022/05/16 06:47:21;;;;;;;8.27;2.40;;;;;;;;;;10025902;28;20077;-66
2022/05/16 06:52:18;;;;;;;8.20;1.60;;;;;;;;;;9953088;28;20518;-66
2022/05/16 06:57:15;;;;;;;7.85;2.38;;;;;;;;;;10046421;28;20206;-67
2022/05/16 07:02:11;;;;;;;5.82;1.92;;;;;;;;;;9991367;28;20079;-68
2022/05/16 07:07:11;;;;;;;9.63;2.10;;;;;;;;;;9981890;28;20083;-68
2022/05/16 07:12:09;;;;;;;8.70;2.25;;;;;;;;;;9990058;28;20056;-68
2022/05/16 07:17:06;;;;;;;7.38;1.65;;;;;;;;;;9983840;28;20048;-68
2022/05/16 07:22:03;;;;;;;5.20;1.85;;;;;;;;;;9952215;28;20528;-68
2022/05/16 07:32:14;;;;;;;7.22;1.92;;;;;;;;;;9969970;28;20135;-67
2022/05/16 07:37:11;;;;;;;6.90;1.85;;;;;;;;;;9982762;28;20064;-68
2022/05/16 07:42:08;;;;;;;6.07;1.85;;;;;;;;;;9985453;28;20714;-68
2022/05/16 07:47:07;;;;;;;6.18;1.52;;;;;;;;;;9973613;28;20498;-68
2022/05/16 07:52:03;;;;;;;6.35;1.77;;;;;;;;;;9989987;29;20585;-68
2022/05/16 07:56:59;;;;;;;9.25;2.25;;;;;;;;;;9980280;28;20114;-68
2022/05/16 08:01:56;;;;;;;6.30;1.95;;;;;;;;;;9986795;29;20066;-68
2022/05/16 08:06:52;;;;;;;5.88;1.60;;;;;;;;;;9974309;28;20056;-68
2022/05/16 08:11:49;;;;;;;5.18;1.77;;;;;;;;;;10011592;28;20485;-68
2022/05/16 08:16:45;;;;;;;5.97;1.52;;;;;;;;;;9992142;28;20059;-68
2022/05/16 08:21:42;;;;;;;5.78;1.80;;;;;;;;;;9975379;29;20081;-68
2022/05/16 08:26:38;;;;;;;5.25;1.20;;;;;;;;;;9974893;28;20056;-67
2022/05/16 08:31:35;;;;;;;6.90;2.67;;;;;;;;;;9987675;29;20708;-67
2022/05/16 08:41:51;;;;;;;6.15;1.60;;;;;;;;;;9970399;29;20522;-67
2022/05/16 08:47:07;;;;;;;10.93;1.85;;;;;;;;;;9979776;28;20132;-67
2022/05/16 08:52:07;;;;;;;6.00;1.60;;;;;;;;;;9983600;29;20076;-66
2022/05/16 08:57:09;;;;;;;9.00;1.90;;;;;;;;;;9966152;29;20041;-67
2022/05/16 09:02:05;;;;;;;8.93;1.80;;;;;;;;;;9981070;29;20122;-67
2022/05/16 09:07:05;;;;;;;6.90;2.08;;;;;;;;;;9967890;28;20067;-67
2022/05/16 09:12:15;;;;;;;7.03;1.90;;;;;;;;;;9986953;29;20080;-67
2022/05/16 09:17:30;;;;;;;4.80;1.75;;;;;;;;;;9974602;28;20852;-67
2022/05/16 09:22:44;;;;;;;9.27;1.67;;;;;;;;;;9986613;29;20044;-67
2022/05/16 09:33:14;;;;;;;3.65;1.08;;;;;;;;;;9985541;29;20055;-67
2022/05/16 09:38:10;;;;;;;7.95;1.65;;;;;;;;;;9981986;28;20577;-67
2022/05/16 09:43:08;;;;;;;5.00;1.35;;;;;;;;;;9989514;29;20182;-67
2022/05/16 09:48:15;;;;;;;5.60;1.65;;;;;;;;;;9979181;29;20048;-67
2022/05/16 09:53:14;;;;;;;5.15;1.40;;;;;;;;;;9982254;29;20056;-67
2022/05/16 09:58:19;;;;;;;9.90;1.88;;;;;;;;;;9983066;28;20825;-67
2022/05/16 10:03:24;;;;;;;4.72;1.17;;;;;;;;;;9975846;28;20052;-66
2022/05/16 10:08:38;;;;;;;6.40;1.35;;;;;;;;;;9979263;28;20095;-67
2022/05/16 10:13:35;;;;;;;4.15;1.10;;;;;;;;;;9988461;28;20458;-67
2022/05/16 10:18:35;;;;;;;5.40;1.42;;;;;;;;;;9973445;28;20083;-66
2022/05/16 10:23:36;;;;;;;7.57;2.08;;;;;;;;;;9979822;28;20119;-65
2022/05/16 10:28:39;;;;;;;4.97;1.50;;;;;;;;;;9976769;28;20068;-66
2022/05/16 10:33:37;;;;;;;6.72;1.80;;;;;;;;;;9986625;28;20083;-65
2022/05/16 10:38:40;;;;;;;3.83;1.27;;;;;;;;;;9962876;28;20068;-67
2022/05/16 10:43:54;;;;;;;6.63;1.02;;;;;;;;;;9983504;28;20127;-67
2022/05/16 10:48:53;;;;;;;7.38;1.67;;;;;;;;;;9987183;29;20131;-66
2022/05/16 10:54:05;;;;;;;6.38;2.05;;;;;;;;;;9982782;28;20083;-69
2022/05/16 10:59:10;;;;;;;7.53;1.77;;;;;;;;;;9957334;28;20641;-66
2022/05/16 11:04:25;;;;;;;4.80;1.35;;;;;;;;;;9977768;28;20048;-65
2022/05/16 11:09:30;;;;;;;6.57;1.70;;;;;;;;;;9973008;28;20048;-66
2022/05/16 11:14:33;;;;;;;5.32;1.10;;;;;;;;;;9982891;28;20064;-66
2022/05/16 11:19:42;;;;;;;4.07;1.90;;;;;;;;;;9987586;28;20048;-66
2022/05/16 11:24:46;;;;;;;4.75;1.75;;;;;;;;;;10014650;28;20136;-66
2022/05/16 11:30:01;;;;;;;4.80;0.90;;;;;;;;;;10000884;28;20059;-65
2022/05/16 11:34:57;;;;;;;4.40;1.63;;;;;;;;;;9982601;28;20723;-66
2022/05/16 11:39:56;;;;;;;6.57;1.20;;;;;;;;;;9992649;28;20498;-65
2022/05/16 11:45:11;;;;;;;6.00;1.40;;;;;;;;;;10038622;28;20137;-66
2022/05/16 11:50:12;;;;;;;4.63;1.63;;;;;;;;;;9985782;28;20095;-66
2022/05/16 12:00:56;;;;;;;5.00;1.38;;;;;;;;;;10018021;28;20048;-64
2022/05/16 12:06:11;;;;;;;5.50;1.33;;;;;;;;;;9963101;28;20135;-64
2022/05/16 12:11:25;;;;;;;4.25;1.80;;;;;;;;;;9955292;28;20051;-64
2022/05/16 12:16:31;;;;;;;6.60;2.03;;;;;;;;;;9979403;28;20044;-64
2022/05/16 12:21:32;;;;;;;5.72;1.55;;;;;;;;;;9987118;29;20066;-64
2022/05/16 12:26:30;;;;;;;4.30;1.20;;;;;;;;;;10031606;28;20114;-64
2022/05/16 12:31:38;;;;;;;5.55;1.55;;;;;;;;;;9984584;29;20474;-64
2022/05/16 12:36:35;;;;;;;3.88;1.10;;;;;;;;;;9978400;28;20049;-64
2022/05/16 12:41:44;;;;;;;3.88;1.42;;;;;;;;;;10013196;28;20144;-65
2022/05/16 12:46:46;;;;;;;5.13;1.73;;;;;;;;;;9996184;28;20713;-64
2022/05/16 12:51:50;;;;;;;7.80;1.92;;;;;;;;;;9961531;28;20060;-64
2022/05/16 12:56:48;;;;;;;9.90;1.55;;;;;;;;;;9961187;28;20512;-64
2022/05/16 13:01:46;;;;;;;5.00;1.95;;;;;;;;;;9964086;28;20098;-63
2022/05/16 13:06:46;;;;;;;4.50;1.38;;;;;;;;;;9961506;28;20526;-64
2022/05/16 13:11:49;;;;;;;4.40;1.27;;;;;;;;;;9971255;28;20557;-65
2022/05/16 13:16:52;;;;;;;8.50;1.52;;;;;;;;;;9980151;28;20151;-63
2022/05/16 13:21:51;;;;;;;4.35;1.30;;;;;;;;;;9970337;28;20147;-64
2022/05/16 13:32:29;;;;;;;5.90;2.40;;;;;;;;;;9970033;28;20047;-64
2022/05/16 13:37:27;;;;;;;4.57;1.48;;;;;;;;;;9970015;28;20611;-64
2022/05/16 13:42:24;;;;;;;10.27;1.80;;;;;;;;;;9974433;28;20135;-66
2022/05/16 13:47:21;;;;;;;7.75;1.38;;;;;;;;;;9971388;28;20063;-63
2022/05/16 13:52:19;;;;;;;4.95;1.50;;;;;;;;;;9969657;28;20786;-64
2022/05/16 13:57:26;;;;;;;5.45;1.50;;;;;;;;;;9966585;29;20593;-64
2022/05/16 14:02:25;;;;;;;5.45;1.67;;;;;;;;;;10018435;28;20083;-64
2022/05/16 14:07:24;;;;;;;4.93;1.50;;;;;;;;;;9964023;28;20496;-64
2022/05/16 14:12:23;;;;;;;6.30;1.58;;;;;;;;;;9989364;28;20464;-64
2022/05/16 14:17:40;;;;;;;5.28;1.20;;;;;;;;;;9968598;28;20207;-65
2022/05/16 14:22:43;;;;;;;5.45;1.40;;;;;;;;;;9952513;28;20091;-64
2022/05/16 14:27:43;;;;;;;9.05;1.60;;;;;;;;;;10015797;28;20048;-64
2022/05/16 14:32:42;;;;;;;6.18;1.52;;;;;;;;;;9989591;28;20083;-64
2022/05/16 14:37:39;;;;;;;5.78;1.65;;;;;;;;;;10039282;28;20098;-64
2022/05/16 14:42:40;;;;;;;4.82;1.50;;;;;;;;;;9987365;28;20080;-65
2022/05/16 14:47:40;;;;;;;4.60;1.48;;;;;;;;;;9979842;28;20045;-66
2022/05/16 14:52:38;;;;;;;5.55;2.20;;;;;;;;;;9969085;28;20068;-66
2022/05/16 14:57:36;;;;;;;5.53;1.70;;;;;;;;;;9969551;28;20090;-66
2022/05/16 15:07:49;;;;;;;4.57;1.15;;;;;;;;;;10009799;28;20068;-66
2022/05/16 15:12:45;;;;;;;10.05;1.70;;;;;;;;;;9964618;28;20103;-65
2022/05/16 15:17:41;;;;;;;8.70;1.92;;;;;;;;;;9967702;28;20088;-65
2022/05/16 15:22:38;;;;;;;6.20;1.73;;;;;;;;;;9965383;28;20816;-65
2022/05/16 15:27:35;;;;;;;10.25;1.77;;;;;;;;;;9988815;28;20143;-65
2022/05/16 15:32:32;;;;;;;7.30;1.73;;;;;;;;;;9960896;28;20142;-65
2022/05/16 15:37:29;;;;;;;5.72;2.03;;;;;;;;;;9952131;28;20449;-64
2022/05/16 15:42:27;;;;;;;7.15;1.90;;;;;;;;;;9954222;28;20053;-64
2022/05/16 15:47:25;;;;;;;9.80;2.03;;;;;;;;;;9932550;28;20044;-64
2022/05/16 15:52:22;;;;;;;5.28;1.40;;;;;;;;;;9960261;28;20075;-64
2022/05/16 15:57:19;;;;;;;7.60;1.40;;;;;;;;;;9964328;28;20109;-64
2022/05/16 16:02:20;;;;;;;6.07;1.45;;;;;;;;;;9974981;29;20474;-64
2022/05/16 16:12:31;;;;;;;6.35;1.33;;;;;;;;;;9983611;29;20130;-64
2022/05/16 16:17:29;;;;;;;6.68;1.45;;;;;;;;;;9999710;28;20047;-65
2022/05/16 16:22:25;;;;;;;6.30;1.40;;;;;;;;;;9966334;28;20179;-65
2022/05/16 16:27:21;;;;;;;5.60;1.45;;;;;;;;;;9959042;28;20138;-65
2022/05/16 16:32:18;;;;;;;5.68;1.50;;;;;;;;;;9954688;28;20059;-67
2022/05/16 16:37:15;;;;;;;7.13;1.70;;;;;;;;;;9958520;28;20080;-67
2022/05/16 16:42:11;;;;;;;7.80;1.52;;;;;;;;;;9957764;28;20084;-68
2022/05/16 16:47:07;;;;;;;6.22;1.60;;;;;;;;;;9962678;28;20090;-68
2022/05/16 16:57:29;;;;;;;7.43;1.48;;;;;;;;;;9952039;28;20696;-68
2022/05/16 17:02:26;;;;;;;8.23;1.60;;;;;;;;;;9944390;28;20052;-68
2022/05/16 17:07:24;;;;;;;5.72;1.67;;;;;;;;;;9959397;28;20387;-67
2022/05/16 17:12:20;;;;;;;8.40;1.63;;;;;;;;;;9958477;28;20139;-64
2022/05/16 17:17:17;;;;;;;4.68;1.30;;;;;;;;;;9965344;28;20122;-65
2022/05/16 17:22:14;;;;;;;6.65;1.77;;;;;;;;;;9972528;28;20048;-65
2022/05/16 17:27:11;;;;;;;7.40;1.60;;;;;;;;;;9951311;28;20131;-65
2022/05/16 17:32:10;;;;;;;6.13;1.52;;;;;;;;;;9958976;28;20133;-65
2022/05/16 17:37:07;;;;;;;9.30;1.40;;;;;;;;;;9954987;28;20589;-65
2022/05/16 17:42:04;;;;;;;10.90;1.83;;;;;;;;;;10015246;28;20823;-66
2022/05/16 17:47:01;;;;;;;6.80;1.45;;;;;;;;;;9975995;28;20071;-65
2022/05/16 17:51:58;;;;;;;6.82;1.88;;;;;;;;;;9960750;28;20123;-65
2022/05/16 17:56:55;;;;;;;9.45;1.80;;;;;;;;;;9983752;28;20052;-66
2022/05/16 18:01:53;;;;;;;9.93;2.25;;;;;;;;;;9995965;28;20073;-65
2022/05/16 18:06:50;;;;;;;5.25;1.20;;;;;;;;;;9951139;28;20191;-65
2022/05/16 18:17:03;;;;;;;7.93;2.00;;;;;;;;;;9982574;28;20056;-65
2022/05/16 18:22:00;;;;;;;4.72;1.63;;;;;;;;;;9998653;28;20413;-66
2022/05/16 18:26:56;;;;;;;5.15;1.40;;;;;;;;;;9992423;28;20554;-65
2022/05/16 18:31:53;;;;;;;5.63;1.67;;;;;;;;;;9990897;29;20056;-66
2022/05/16 18:36:49;;;;;;;7.85;1.90;;;;;;;;;;10027349;28;20095;-65
2022/05/16 18:52:20;;;;;;;6.43;1.73;;;;;;;;;;9985392;29;20102;-66
2022/05/16 18:57:16;;;;;;;9.02;2.00;;;;;;;;;;10005724;28;20517;-65
2022/05/16 19:02:12;;;;;;;7.47;1.60;;;;;;;;;;9955948;28;20099;-66
2022/05/16 19:07:09;;;;;;;5.43;1.50;;;;;;;;;;10030953;28;20609;-65
2022/05/16 19:12:06;;;;;;;8.00;2.00;;;;;;;;;;10062462;28;20056;-65
2022/05/16 19:17:04;;;;;;;7.88;2.15;;;;;;;;;;9970178;28;20060;-65
2022/05/16 19:22:00;;;;;;;5.75;1.50;;;;;;;;;;9982265;28;20537;-66
2022/05/16 19:26:57;;;;;;;5.47;1.50;;;;;;;;;;10014930;28;20099;-65
2022/05/16 19:32:01;;;;;;;9.98;1.88;;;;;;;;;;9983185;28;20056;-66
2022/05/16 19:36:57;;;;;;;6.78;1.77;;;;;;;;;;9977549;28;20051;-65
2022/05/16 19:41:53;;;;;;;8.23;2.03;;;;;;;;;;9987488;29;20754;-66
2022/05/16 19:46:50;;;;;;;5.13;1.52;;;;;;;;;;9992113;28;20056;-66
2022/05/16 19:51:46;;;;;;;8.07;1.85;;;;;;;;;;9987832;29;20067;-66
2022/05/16 19:56:47;;;;;;;6.70;1.63;;;;;;;;;;9988060;28;20513;-65
2022/05/16 20:01:46;;;;;;;7.40;2.03;;;;;;;;;;9978685;29;20048;-65
2022/05/16 20:06:42;;;;;;;8.77;1.92;;;;;;;;;;9970997;29;20635;-67
2022/05/16 20:11:41;;;;;;;7.43;2.00;;;;;;;;;;9996808;28;20442;-64
2022/05/16 20:16:37;;;;;;;6.43;1.98;;;;;;;;;;9970073;28;20569;-66
2022/05/16 20:21:34;;;;;;;7.10;1.90;;;;;;;;;;9967522;28;20044;-65
2022/05/16 20:26:30;;;;;;;5.32;1.30;;;;;;;;;;9956104;28;20044;-66
2022/05/16 20:31:27;;;;;;;7.85;1.70;;;;;;;;;;9974556;28;20201;-65
2022/05/16 20:36:23;;;;;;;7.18;1.65;;;;;;;;;;9971833;28;20080;-67
2022/05/16 20:41:19;;;;;;;7.88;1.40;;;;;;;;;;9962731;28;20055;-67
2022/05/16 20:46:16;;;;;;;5.00;1.63;;;;;;;;;;9970804;28;20490;-65
2022/05/16 20:51:12;;;;;;;5.97;2.10;;;;;;;;;;9974046;28;20403;-68
2022/05/16 20:56:09;;;;;;;4.63;1.80;;;;;;;;;;9971790;28;20088;-66
2022/05/16 21:01:28;;;;;;;5.53;1.48;;;;;;;;;;9975259;28;20139;-63
2022/05/16 21:06:25;;;;;;;6.28;1.85;;;;;;;;;;9980338;28;20044;-64
2022/05/16 21:11:21;;;;;;;4.53;1.50;;;;;;;;;;9973020;29;20535;-63
2022/05/16 21:16:19;;;;;;;6.35;1.88;;;;;;;;;;9976740;28;20080;-64
2022/05/16 21:21:15;;;;;;;6.70;1.90;;;;;;;;;;9966463;29;20469;-64
2022/05/16 21:26:13;;;;;;;7.38;1.90;;;;;;;;;;9972576;28;20566;-64
2022/05/16 21:31:09;;;;;;;6.80;1.67;;;;;;;;;;9988589;29;20518;-65
2022/05/16 21:36:05;;;;;;;7.88;1.75;;;;;;;;;;9989412;28;20496;-65
2022/05/16 21:41:02;;;;;;;10.27;2.38;;;;;;;;;;10045687;28;20147;-65
2022/05/16 21:45:58;;;;;;;7.95;1.77;;;;;;;;;;9977418;28;20045;-65
2022/05/16 21:50:55;;;;;;;6.70;1.60;;;;;;;;;;9960585;28;20166;-65
2022/05/16 21:55:51;;;;;;;5.63;1.80;;;;;;;;;;9968648;28;20103;-64
2022/05/16 22:00:47;;;;;;;6.95;1.80;;;;;;;;;;9974610;29;20532;-64
2022/05/16 22:05:45;;;;;;;5.45;1.58;;;;;;;;;;9969623;28;20494;-64
2022/05/16 22:10:43;;;;;;;6.80;1.90;;;;;;;;;;9988426;29;20048;-65
2022/05/16 22:15:40;;;;;;;6.57;1.60;;;;;;;;;;9983962;29;20059;-64
2022/05/16 22:20:36;;;;;;;5.50;1.85;;;;;;;;;;9980811;29;20071;-64
2022/05/16 22:25:33;;;;;;;4.88;2.00;;;;;;;;;;10020940;28;20073;-64
2022/05/16 22:30:30;;;;;;;6.43;2.00;;;;;;;;;;9978036;29;20071;-64
2022/05/16 22:35:27;;;;;;;6.18;1.83;;;;;;;;;;9981424;29;20126;-64
2022/05/16 22:40:25;;;;;;;5.72;1.67;;;;;;;;;;9982478;28;20079;-64
2022/05/16 22:45:23;;;;;;;7.35;2.28;;;;;;;;;;9976387;29;20138;-64
2022/05/16 22:50:20;;;;;;;5.57;1.80;;;;;;;;;;9973812;29;20079;-64
2022/05/16 22:55:17;;;;;;;6.57;2.15;;;;;;;;;;10006751;28;20046;-65
2022/05/16 23:00:14;;;;;;;6.50;1.77;;;;;;;;;;9975608;28;20045;-65
2022/05/16 23:05:11;;;;;;;7.38;2.00;;;;;;;;;;9980513;28;20048;-64
2022/05/16 23:10:09;;;;;;;7.13;2.13;;;;;;;;;;9986068;29;20080;-64
2022/05/16 23:15:05;;;;;;;8.20;2.25;;;;;;;;;;9985935;28;20264;-64
2022/05/16 23:20:02;;;;;;;6.38;2.70;;;;;;;;;;9983273;28;20161;-66
2022/05/16 23:24:58;;;;;;;6.07;2.55;;;;;;;;;;9989540;28;20445;-65
2022/05/16 23:29:55;;;;;;;6.82;2.55;;;;;;;;;;9981217;29;20057;-64
2022/05/16 23:34:51;;;;;;;6.93;2.80;;;;;;;;;;9978869;29;20075;-65
2022/05/16 23:39:47;;;;;;;5.78;2.40;;;;;;;;;;9977607;29;20087;-64
2022/05/16 23:44:45;;;;;;;7.78;2.88;;;;;;;;;;9986603;28;20111;-64
2022/05/16 23:49:42;;;;;;;8.40;2.83;;;;;;;;;;10015056;28;20052;-64
2022/05/16 23:54:39;;;;;;;9.48;2.80;;;;;;;;;;9983092;28;20139;-64
2022/05/16 23:59:36;;;;;;;6.25;2.95;;;;;;;;;;9986930;29;20135;-64
